Time;durP1;ratioP1;P1;durP2;ratioP2;P2;SDS_P1;SDS_P2;PMS_P1;PMS_P2;Temp;Humidity;BMP_temperature;BMP_pressure;BME280_temperature;BME280_humidity;BME280_pressure;Samples;Min_cycle;Max_cycle;Signal;HPM_P1;HPM_P2
2024/02/27 00:00:14;;;;;;;29.53;14.07;;;6.90;99.90;;;;;;5036818;28;20241;-55
2024/02/27 00:02:40;;;;;;;32.27;14.47;;;6.90;99.90;;;;;;5049657;28;20230;-59
2024/02/27 00:05:06;;;;;;;36.83;15.40;;;6.90;99.90;;;;;;5033000;28;20238;-59
2024/02/27 00:07:32;;;;;;;30.30;15.10;;;6.80;99.90;;;;;;5040062;28;20193;-56
2024/02/27 00:09:58;;;;;;;34.73;15.23;;;6.80;99.90;;;;;;5032708;28;20212;-58
2024/02/27 00:12:25;;;;;;;25.40;13.77;;;6.80;99.90;;;;;;5040683;28;20211;-54
2024/02/27 00:14:52;;;;;;;28.63;15.23;;;6.80;99.90;;;;;;5032228;28;20571;-54
2024/02/27 00:17:20;;;;;;;29.23;14.47;;;6.70;99.90;;;;;;5039690;28;20203;-53
2024/02/27 00:19:45;;;;;;;26.00;12.87;;;6.80;99.90;;;;;;5052486;28;20210;-56
2024/02/27 00:22:11;;;;;;;26.50;13.13;;;6.70;99.90;;;;;;5045517;28;20312;-53
2024/02/27 00:24:36;;;;;;;28.73;14.40;;;6.70;99.90;;;;;;5031719;28;20199;-57
2024/02/27 00:27:02;;;;;;;27.93;13.67;;;6.70;99.90;;;;;;5031743;28;20182;-54
2024/02/27 00:29:28;;;;;;;29.20;13.63;;;6.60;99.90;;;;;;5033009;28;20291;-57
2024/02/27 00:31:53;;;;;;;35.60;14.90;;;6.70;99.90;;;;;;5052192;28;20667;-59
2024/02/27 00:34:19;;;;;;;28.23;14.83;;;6.60;99.90;;;;;;5052160;28;20274;-59
2024/02/27 00:36:44;;;;;;;30.17;13.47;;;6.60;99.90;;;;;;5043596;28;20187;-57
2024/02/27 00:39:10;;;;;;;24.40;12.27;;;6.60;99.90;;;;;;5045201;28;20582;-56
2024/02/27 00:41:42;;;;;;;27.90;13.87;;;6.60;99.90;;;;;;5042285;28;20191;-54
2024/02/27 00:44:09;;;;;;;28.97;13.57;;;6.60;99.90;;;;;;5051417;28;20293;-54
2024/02/27 00:46:37;;;;;;;27.47;12.70;;;6.60;99.90;;;;;;5033208;28;20184;-53
2024/02/27 00:49:02;;;;;;;24.73;13.03;;;6.60;99.90;;;;;;5045494;28;20207;-55
2024/02/27 00:51:28;;;;;;;25.00;12.93;;;6.70;99.90;;;;;;5043158;28;20261;-56
2024/02/27 00:53:53;;;;;;;23.00;12.23;;;6.70;99.90;;;;;;5039311;28;20187;-54
2024/02/27 00:56:19;;;;;;;22.10;12.00;;;6.70;99.90;;;;;;5031630;28;20194;-55
2024/02/27 00:58:45;;;;;;;25.00;11.90;;;6.70;99.90;;;;;;5042332;28;20183;-57
2024/02/27 01:01:10;;;;;;;23.13;11.63;;;6.70;99.90;;;;;;5043287;28;20199;-57
2024/02/27 01:03:36;;;;;;;25.20;11.70;;;6.60;99.90;;;;;;5043114;28;20207;-57
2024/02/27 01:06:03;;;;;;;27.10;12.70;;;6.50;99.90;;;;;;5043130;28;20187;-56
2024/02/27 01:08:29;;;;;;;22.17;11.77;;;6.50;99.90;;;;;;5033484;28;20199;-55
2024/02/27 01:10:55;;;;;;;22.60;11.67;;;6.50;99.90;;;;;;5036037;28;20213;-57
2024/02/27 01:13:21;;;;;;;21.57;9.90;;;6.50;99.90;;;;;;5050997;28;20198;-54
2024/02/27 01:15:46;;;;;;;22.77;11.10;;;6.50;99.90;;;;;;5039475;28;20597;-55
2024/02/27 01:18:12;;;;;;;23.80;10.90;;;6.40;99.90;;;;;;5030878;28;20180;-58
2024/02/27 01:20:37;;;;;;;19.63;10.63;;;6.40;99.90;;;;;;5039388;28;20184;-56
2024/02/27 01:23:03;;;;;;;25.60;10.53;;;6.40;99.90;;;;;;5031487;28;20251;-58
2024/02/27 01:25:28;;;;;;;27.80;11.37;;;6.40;99.90;;;;;;5039428;28;20310;-53
2024/02/27 01:27:54;;;;;;;20.97;10.87;;;6.50;99.90;;;;;;5051613;28;20605;-58
2024/02/27 01:30:19;;;;;;;21.80;10.13;;;6.40;99.90;;;;;;5034867;28;20639;-56
2024/02/27 01:32:45;;;;;;;19.20;9.93;;;6.40;99.90;;;;;;5030921;28;20204;-57
2024/02/27 01:35:11;;;;;;;24.60;10.47;;;6.40;99.90;;;;;;5037313;28;20183;-57
2024/02/27 01:37:36;;;;;;;21.90;10.27;;;6.30;99.90;;;;;;5039577;28;20176;-59
2024/02/27 01:40:04;;;;;;;19.83;9.83;;;6.20;99.90;;;;;;5031197;28;20203;-59
2024/02/27 01:42:29;;;;;;;19.10;9.20;;;6.30;99.90;;;;;;5038855;28;20207;-57
2024/02/27 01:44:55;;;;;;;18.90;10.70;;;6.30;99.90;;;;;;5030741;28;20207;-58
2024/02/27 01:47:22;;;;;;;24.07;10.47;;;6.20;99.90;;;;;;5030922;28;20266;-59
2024/02/27 01:49:48;;;;;;;25.10;11.23;;;6.20;99.90;;;;;;5042804;28;20459;-55
2024/02/27 01:52:15;;;;;;;19.77;10.37;;;6.10;99.90;;;;;;5042678;28;20207;-58
2024/02/27 01:54:46;;;;;;;17.47;9.10;;;6.00;99.90;;;;;;5039794;28;20179;-58
2024/02/27 01:57:13;;;;;;;22.63;11.30;;;6.00;99.90;;;;;;5036668;28;20192;-58
2024/02/27 01:59:41;;;;;;;21.17;9.93;;;5.90;99.90;;;;;;5040076;28;20607;-59
2024/02/27 02:02:07;;;;;;;17.10;9.87;;;6.00;99.90;;;;;;5030911;28;20207;-59
2024/02/27 02:04:34;;;;;;;18.17;9.00;;;5.90;99.90;;;;;;5032286;28;20377;-58
2024/02/27 02:07:00;;;;;;;22.03;10.60;;;5.90;99.90;;;;;;5049970;28;20191;-53
2024/02/27 02:09:26;;;;;;;22.60;10.60;;;5.80;99.90;;;;;;5033952;28;20188;-53
2024/02/27 02:11:52;;;;;;;22.47;10.97;;;5.80;99.90;;;;;;5037874;28;20572;-57
2024/02/27 02:14:19;;;;;;;17.23;9.70;;;5.70;99.90;;;;;;5030622;28;20725;-55
2024/02/27 02:16:44;;;;;;;19.23;10.10;;;5.60;99.90;;;;;;5041186;28;20677;-53
2024/02/27 02:19:10;;;;;;;18.73;9.67;;;5.60;99.90;;;;;;5034930;28;20188;-53
2024/02/27 02:21:35;;;;;;;17.87;9.60;;;5.60;99.90;;;;;;5030160;28;20233;-55
2024/02/27 02:24:02;;;;;;;25.30;9.93;;;5.40;99.90;;;;;;5035475;28;20559;-56
2024/02/27 02:26:30;;;;;;;20.10;10.33;;;5.40;99.90;;;;;;5049254;28;20183;-55
2024/02/27 02:28:57;;;;;;;22.93;10.33;;;5.30;99.90;;;;;;5036699;28;20184;-55
2024/02/27 02:31:22;;;;;;;19.80;10.23;;;5.30;99.90;;;;;;5046489;28;20221;-54
2024/02/27 02:33:48;;;;;;;16.27;8.70;;;5.30;99.90;;;;;;5029734;28;20683;-56
2024/02/27 02:36:13;;;;;;;19.83;9.50;;;5.30;99.90;;;;;;5036815;28;20191;-57
2024/02/27 02:38:39;;;;;;;18.17;9.47;;;5.20;99.90;;;;;;5030554;28;20187;-54
2024/02/27 02:41:04;;;;;;;16.87;9.43;;;5.10;99.90;;;;;;5043525;28;20228;-54
2024/02/27 02:43:30;;;;;;;23.20;10.27;;;5.00;99.90;;;;;;5032110;28;20281;-55
2024/02/27 02:45:55;;;;;;;21.10;10.40;;;5.00;99.90;;;;;;5029862;28;20194;-54
2024/02/27 02:48:21;;;;;;;17.50;9.70;;;5.10;99.90;;;;;;5036953;28;20187;-54
2024/02/27 02:50:47;;;;;;;26.53;10.83;;;5.20;99.90;;;;;;5037994;28;20683;-55
2024/02/27 02:53:13;;;;;;;23.73;10.57;;;5.10;99.90;;;;;;5045105;28;20199;-57
2024/02/27 02:55:42;;;;;;;21.23;11.57;;;5.10;99.90;;;;;;5047042;28;20187;-55
2024/02/27 02:58:10;;;;;;;23.40;9.63;;;5.10;99.90;;;;;;5029444;28;20310;-55
2024/02/27 03:00:36;;;;;;;18.70;10.03;;;5.00;99.90;;;;;;5038056;28;20251;-53
2024/02/27 03:03:02;;;;;;;23.40;10.30;;;5.10;99.90;;;;;;5043134;28;20199;-56
2024/02/27 03:05:28;;;;;;;20.77;9.30;;;5.20;99.90;;;;;;5033051;28;20194;-54
2024/02/27 03:07:53;;;;;;;18.17;10.03;;;5.00;99.90;;;;;;5036578;28;20267;-57
2024/02/27 03:10:19;;;;;;;18.10;10.03;;;5.00;99.90;;;;;;5029188;28;20235;-55
2024/02/27 03:12:45;;;;;;;23.20;10.33;;;5.10;99.90;;;;;;5032395;28;20636;-54
2024/02/27 03:15:11;;;;;;;17.60;9.37;;;5.00;99.90;;;;;;5034713;28;20275;-53
2024/02/27 03:17:36;;;;;;;20.37;9.93;;;4.90;99.90;;;;;;5046904;28;20211;-53
2024/02/27 03:20:05;;;;;;;24.27;10.17;;;4.80;99.90;;;;;;5036016;28;20558;-55
2024/02/27 03:22:31;;;;;;;22.83;9.70;;;4.90;99.90;;;;;;5037559;28;20314;-54
2024/02/27 03:24:57;;;;;;;23.40;10.57;;;4.90;99.90;;;;;;5024272;28;20191;-57
2024/02/27 03:27:23;;;;;;;20.50;10.47;;;4.80;99.90;;;;;;5040572;28;20240;-56
2024/02/27 03:29:48;;;;;;;25.10;11.00;;;4.70;99.90;;;;;;5028236;28;20556;-57
2024/02/27 03:32:14;;;;;;;28.50;11.77;;;4.80;99.90;;;;;;5036157;28;20706;-58
2024/02/27 03:34:39;;;;;;;22.70;11.43;;;4.80;99.90;;;;;;5030730;28;20186;-56
2024/02/27 03:37:05;;;;;;;23.27;11.20;;;4.80;99.90;;;;;;5042766;28;20207;-55
2024/02/27 03:39:30;;;;;;;22.73;11.37;;;4.70;99.90;;;;;;5039655;28;20222;-54
2024/02/27 03:41:56;;;;;;;21.67;11.53;;;4.70;99.90;;;;;;5029285;28;20691;-58
2024/02/27 03:44:21;;;;;;;26.37;12.23;;;4.80;99.90;;;;;;5037460;28;20303;-56
2024/02/27 03:46:47;;;;;;;24.50;11.73;;;4.80;99.90;;;;;;5028764;28;20208;-56
2024/02/27 03:49:12;;;;;;;26.97;12.67;;;4.90;99.90;;;;;;5043888;28;20179;-53
2024/02/27 03:51:38;;;;;;;24.63;12.47;;;5.00;99.90;;;;;;5030630;28;20223;-58
2024/02/27 03:54:04;;;;;;;25.73;12.03;;;4.90;99.90;;;;;;5034404;28;20244;-56
2024/02/27 03:56:29;;;;;;;20.47;11.10;;;4.90;99.90;;;;;;5040736;28;20184;-54
2024/02/27 03:58:55;;;;;;;24.20;11.77;;;4.90;99.90;;;;;;5036338;28;20204;-54
2024/02/27 04:01:21;;;;;;;20.70;10.67;;;5.00;99.90;;;;;;5040822;28;20703;-57
2024/02/27 04:03:46;;;;;;;26.73;12.33;;;5.00;99.90;;;;;;5040898;28;20180;-59
2024/02/27 04:06:12;;;;;;;24.97;12.50;;;4.90;99.90;;;;;;5047579;28;20179;-58
2024/02/27 04:08:38;;;;;;;22.67;12.47;;;5.00;99.90;;;;;;5050246;28;20198;-58
2024/02/27 04:11:04;;;;;;;32.53;12.63;;;5.00;99.90;;;;;;5040763;28;20254;-57
2024/02/27 04:13:30;;;;;;;25.90;11.77;;;5.00;99.90;;;;;;5040911;28;20195;-57
2024/02/27 04:15:55;;;;;;;24.53;12.80;;;5.10;99.90;;;;;;5032102;28;20548;-57
2024/02/27 04:18:21;;;;;;;26.43;13.00;;;5.20;99.90;;;;;;5040027;28;20617;-59
2024/02/27 04:20:47;;;;;;;25.70;13.20;;;5.20;99.90;;;;;;5032637;28;20226;-58
2024/02/27 04:23:12;;;;;;;23.30;12.17;;;5.30;99.90;;;;;;5032100;28;20204;-53
2024/02/27 04:25:38;;;;;;;26.97;12.50;;;5.30;99.90;;;;;;5040645;28;20685;-53
2024/02/27 04:28:04;;;;;;;28.27;12.10;;;5.40;99.90;;;;;;5045554;28;20697;-56
2024/02/27 04:30:31;;;;;;;26.37;12.43;;;5.40;99.90;;;;;;5043462;28;20291;-55
2024/02/27 04:32:56;;;;;;;23.77;12.07;;;5.50;99.90;;;;;;5039500;28;20282;-57
2024/02/27 04:35:23;;;;;;;23.37;11.33;;;5.40;99.90;;;;;;5039675;28;20262;-55
2024/02/27 04:37:49;;;;;;;22.90;11.77;;;5.40;99.90;;;;;;5034901;28;20179;-55
2024/02/27 04:40:14;;;;;;;31.63;14.23;;;5.40;99.90;;;;;;5052044;28;20183;-56
2024/02/27 04:42:40;;;;;;;27.17;12.63;;;5.50;99.90;;;;;;5043891;28;20281;-58
2024/02/27 04:45:06;;;;;;;28.73;12.97;;;5.40;99.90;;;;;;5052036;28;20291;-56
2024/02/27 04:47:32;;;;;;;27.70;13.43;;;5.40;99.90;;;;;;5042394;28;20604;-58
2024/02/27 04:49:58;;;;;;;29.40;14.40;;;5.40;99.90;;;;;;5040301;28;20220;-59
2024/02/27 04:52:23;;;;;;;31.23;13.17;;;5.40;99.90;;;;;;5032421;28;20219;-59
2024/02/27 04:54:49;;;;;;;23.70;12.17;;;5.30;99.90;;;;;;5035492;28;20181;-58
2024/02/27 04:57:15;;;;;;;30.60;13.23;;;5.30;99.90;;;;;;5035962;28;20184;-58
2024/02/27 04:59:40;;;;;;;34.83;15.17;;;5.30;99.90;;;;;;5031742;28;20224;-56
2024/02/27 05:02:06;;;;;;;32.70;14.60;;;5.30;99.90;;;;;;5037121;28;20615;-59
2024/02/27 05:04:31;;;;;;;29.43;14.50;;;5.40;99.90;;;;;;5034964;28;20245;-59
2024/02/27 05:06:57;;;;;;;31.70;14.10;;;5.30;99.90;;;;;;5042688;28;20180;-59
2024/02/27 05:09:23;;;;;;;27.60;14.00;;;5.30;99.90;;;;;;5035096;28;20194;-57
2024/02/27 05:11:48;;;;;;;32.10;15.37;;;5.40;99.90;;;;;;5051229;28;20211;-57
2024/02/27 05:14:14;;;;;;;28.43;14.70;;;5.30;99.90;;;;;;5049001;28;20682;-57
2024/02/27 05:16:40;;;;;;;30.57;15.30;;;5.30;99.90;;;;;;5034281;28;20182;-57
2024/02/27 05:19:05;;;;;;;36.00;16.03;;;5.40;99.90;;;;;;5045177;28;20186;-55
2024/02/27 05:21:31;;;;;;;34.07;14.93;;;5.50;99.90;;;;;;5039368;28;20211;-56
2024/02/27 05:23:57;;;;;;;30.67;14.20;;;5.50;99.90;;;;;;5031222;28;20188;-58
2024/02/27 05:26:23;;;;;;;32.63;14.67;;;5.50;99.90;;;;;;5039499;28;20559;-57
2024/02/27 05:28:49;;;;;;;25.47;12.67;;;5.50;99.90;;;;;;5013222;28;20196;-53
2024/02/27 05:31:29;;;;;;;30.00;14.27;;;5.50;99.90;;;;;;5039148;28;20212;-53
2024/02/27 05:33:56;;;;;;;29.33;13.43;;;5.50;99.90;;;;;;5039513;28;20674;-54
2024/02/27 05:36:23;;;;;;;32.90;14.90;;;5.60;99.90;;;;;;5039117;28;20652;-53
2024/02/27 05:38:50;;;;;;;27.40;13.60;;;5.60;99.90;;;;;;5038343;28;20241;-54
2024/02/27 05:41:17;;;;;;;34.17;14.53;;;5.70;99.90;;;;;;5031164;28;20191;-54
2024/02/27 05:43:43;;;;;;;32.10;14.37;;;5.70;99.90;;;;;;5038742;28;20226;-54
2024/02/27 05:46:09;;;;;;;28.03;14.60;;;5.60;99.90;;;;;;5030408;28;20204;-55
2024/02/27 05:48:36;;;;;;;31.17;14.47;;;5.70;99.90;;;;;;5032021;28;20270;-56
2024/02/27 05:51:02;;;;;;;36.73;16.57;;;5.70;99.90;;;;;;5045671;28;20218;-56
2024/02/27 05:53:29;;;;;;;31.83;14.90;;;5.70;99.90;;;;;;5046949;28;20580;-52
2024/02/27 05:55:55;;;;;;;32.03;14.77;;;5.70;99.90;;;;;;5030762;28;20267;-53
2024/02/27 05:58:23;;;;;;;31.93;15.50;;;5.70;99.90;;;;;;5037823;28;20274;-57
2024/02/27 06:00:52;;;;;;;31.60;14.97;;;5.70;99.90;;;;;;5033624;28;20195;-53
2024/02/27 06:03:18;;;;;;;32.43;14.67;;;5.70;99.90;;;;;;5034963;28;20709;-53
2024/02/27 06:05:45;;;;;;;34.00;15.67;;;5.70;99.90;;;;;;5046783;28;20187;-53
2024/02/27 06:08:10;;;;;;;32.33;14.60;;;5.70;99.90;;;;;;5029953;28;20663;-55
2024/02/27 06:10:36;;;;;;;35.73;15.23;;;5.60;99.90;;;;;;5031817;28;20257;-56
2024/02/27 06:13:02;;;;;;;27.33;13.57;;;5.60;99.90;;;;;;5036647;28;20211;-53
2024/02/27 06:15:28;;;;;;;32.97;13.83;;;5.60;99.90;;;;;;5041031;28;20195;-54
2024/02/27 06:17:54;;;;;;;28.77;13.33;;;5.70;99.90;;;;;;5029753;28;20270;-57
2024/02/27 06:23:04;;;;;;;31.30;13.70;;;5.80;99.90;;;;;;5029661;28;20218;-58
2024/02/27 06:25:29;;;;;;;27.00;13.10;;;5.70;99.90;;;;;;5046555;28;20199;-53
2024/02/27 06:27:55;;;;;;;26.93;12.70;;;5.70;99.90;;;;;;5029366;28;20245;-56
2024/02/27 06:30:21;;;;;;;28.30;13.87;;;5.70;99.90;;;;;;5037314;28;20207;-55
2024/02/27 06:32:46;;;;;;;29.33;13.47;;;5.60;99.90;;;;;;5041444;28;20217;-57
2024/02/27 06:35:12;;;;;;;30.67;14.77;;;5.60;99.90;;;;;;5040533;28;20183;-54
2024/02/27 06:37:37;;;;;;;27.50;13.67;;;5.70;99.90;;;;;;5038277;28;20554;-55
2024/02/27 06:40:04;;;;;;;25.20;12.67;;;5.70;99.90;;;;;;5042447;28;20586;-57
2024/02/27 06:42:36;;;;;;;24.17;12.20;;;5.60;99.90;;;;;;5034713;28;20195;-56
2024/02/27 06:45:06;;;;;;;23.23;13.10;;;5.60;99.90;;;;;;5049308;28;20297;-55
2024/02/27 06:47:32;;;;;;;26.37;11.97;;;5.50;99.90;;;;;;5039289;28;20194;-53
2024/02/27 06:49:58;;;;;;;23.10;11.40;;;5.40;99.90;;;;;;5033041;28;20580;-56
2024/02/27 06:52:27;;;;;;;26.13;13.37;;;5.30;99.90;;;;;;5049372;28;20211;-58
2024/02/27 06:54:53;;;;;;;30.07;13.47;;;5.30;99.90;;;;;;5037936;28;20623;-54
2024/02/27 06:57:19;;;;;;;25.80;13.10;;;5.20;99.90;;;;;;5027827;28;20210;-54
2024/02/27 06:59:44;;;;;;;27.20;12.83;;;5.30;99.90;;;;;;5037028;28;20194;-55
2024/02/27 07:02:10;;;;;;;23.17;11.40;;;5.30;99.90;;;;;;5034579;28;20300;-56
2024/02/27 07:04:36;;;;;;;21.67;11.63;;;5.20;99.90;;;;;;5038779;28;20221;-53
2024/02/27 07:07:03;;;;;;;25.00;11.40;;;5.10;99.90;;;;;;5041294;28;20252;-56
2024/02/27 07:09:30;;;;;;;20.57;11.10;;;5.10;99.90;;;;;;5039689;28;20207;-54
2024/02/27 07:11:56;;;;;;;21.43;10.73;;;5.00;99.90;;;;;;5032448;28;20290;-57
2024/02/27 07:14:21;;;;;;;20.83;9.97;;;5.00;99.90;;;;;;5033001;28;20266;-55
2024/02/27 07:16:47;;;;;;;22.50;10.33;;;4.90;99.90;;;;;;5043390;28;20223;-54
2024/02/27 07:19:13;;;;;;;18.63;9.50;;;5.00;99.90;;;;;;5034701;28;20186;-54
2024/02/27 07:21:39;;;;;;;18.67;9.63;;;5.00;99.90;;;;;;5038571;28;20200;-57
2024/02/27 07:24:06;;;;;;;22.50;10.53;;;5.10;99.90;;;;;;5036962;28;20654;-56
2024/02/27 07:26:31;;;;;;;22.80;11.40;;;5.20;99.90;;;;;;5044960;28;20530;-52
2024/02/27 07:28:57;;;;;;;25.30;11.57;;;5.20;99.90;;;;;;5037039;28;20799;-56
2024/02/27 07:31:22;;;;;;;25.33;12.60;;;5.20;99.90;;;;;;5036682;28;20757;-60
2024/02/27 07:33:48;;;;;;;23.03;12.87;;;5.30;99.90;;;;;;5031858;28;20187;-58
2024/02/27 07:36:13;;;;;;;26.57;13.53;;;5.30;99.90;;;;;;5044435;28;20562;-59
2024/02/27 07:38:39;;;;;;;25.37;13.10;;;5.50;99.90;;;;;;5043637;28;20587;-58
2024/02/27 07:41:05;;;;;;;24.43;12.97;;;5.50;99.90;;;;;;5038809;28;20226;-56
2024/02/27 07:43:31;;;;;;;32.80;13.07;;;5.50;99.90;;;;;;5041402;28;20798;-56
2024/02/27 07:45:56;;;;;;;23.50;12.70;;;5.60;99.90;;;;;;5043862;28;20221;-56
2024/02/27 07:48:22;;;;;;;23.40;12.30;;;5.70;99.90;;;;;;5044227;28;20266;-59
2024/02/27 07:50:47;;;;;;;25.07;12.07;;;5.70;99.90;;;;;;5034228;28;20240;-56
2024/02/27 07:53:13;;;;;;;22.30;11.53;;;5.80;99.90;;;;;;5039000;28;20730;-56
2024/02/27 07:55:41;;;;;;;19.23;10.80;;;5.80;99.90;;;;;;5033701;28;20663;-57
2024/02/27 07:58:07;;;;;;;22.33;12.07;;;5.90;99.90;;;;;;5045604;28;20191;-59
2024/02/27 08:00:33;;;;;;;21.67;11.77;;;6.10;99.90;;;;;;5041153;28;20222;-59
2024/02/27 08:02:59;;;;;;;25.13;11.50;;;6.10;99.90;;;;;;5040612;28;20215;-57
2024/02/27 08:05:27;;;;;;;24.87;12.07;;;6.50;99.90;;;;;;5032392;28;20200;-59
2024/02/27 08:07:53;;;;;;;23.63;12.23;;;6.90;99.90;;;;;;5042531;28;20183;-59
2024/02/27 08:10:20;;;;;;;23.17;12.50;;;7.20;99.90;;;;;;5034643;28;20695;-57
2024/02/27 08:12:48;;;;;;;22.50;11.67;;;7.70;99.90;;;;;;5031656;28;20246;-58
2024/02/27 08:15:15;;;;;;;20.27;11.37;;;8.20;99.90;;;;;;5032615;28;20188;-58
2024/02/27 08:17:41;;;;;;;17.93;10.17;;;8.70;99.90;;;;;;5041149;28;20297;-56
2024/02/27 08:20:08;;;;;;;19.33;11.27;;;8.90;99.90;;;;;;5037879;28;20196;-57
2024/02/27 08:22:33;;;;;;;20.73;10.40;;;9.30;99.90;;;;;;5031001;28;20207;-56
2024/02/27 08:24:59;;;;;;;18.87;9.90;;;9.60;99.90;;;;;;5036150;28;20236;-57
2024/02/27 08:27:25;;;;;;;23.13;10.73;;;9.90;99.90;;;;;;5041379;28;20249;-59
2024/02/27 08:29:50;;;;;;;18.47;10.37;;;10.10;99.90;;;;;;5039213;28;20206;-58
2024/02/27 08:32:17;;;;;;;22.53;10.67;;;10.30;99.90;;;;;;5038107;28;20692;-56
2024/02/27 08:34:43;;;;;;;23.77;10.90;;;10.80;99.90;;;;;;5032141;28;20180;-60
2024/02/27 08:37:08;;;;;;;19.13;9.83;;;11.20;99.90;;;;;;5036176;28;20191;-59
2024/02/27 08:39:34;;;;;;;19.00;10.07;;;11.40;99.90;;;;;;5050154;28;20337;-55
2024/02/27 08:42:00;;;;;;;21.23;9.10;;;11.40;99.90;;;;;;5039024;28;20321;-58
2024/02/27 08:44:26;;;;;;;18.63;10.03;;;11.60;99.90;;;;;;5031026;28;20226;-57
2024/02/27 08:46:51;;;;;;;18.70;10.67;;;12.00;99.90;;;;;;5030419;28;20580;-56
2024/02/27 08:49:17;;;;;;;16.53;9.70;;;12.50;99.90;;;;;;5030821;28;20176;-55
2024/02/27 08:51:44;;;;;;;18.80;9.13;;;12.70;99.90;;;;;;5047167;28;20336;-58
2024/02/27 08:54:10;;;;;;;16.43;8.33;;;12.80;99.90;;;;;;5036674;28;20183;-56
2024/02/27 08:56:39;;;;;;;16.67;8.70;;;12.90;99.90;;;;;;5041939;28;20472;-57
2024/02/27 08:59:05;;;;;;;14.60;7.40;;;13.00;99.90;;;;;;5041944;28;20183;-58
2024/02/27 09:01:31;;;;;;;14.27;7.77;;;13.30;99.90;;;;;;5033943;28;20191;-57
2024/02/27 09:03:57;;;;;;;16.63;8.10;;;13.60;99.90;;;;;;5042231;28;20522;-57
2024/02/27 09:06:22;;;;;;;15.53;8.77;;;13.70;99.90;;;;;;5034762;28;20215;-57
2024/02/27 09:08:48;;;;;;;16.13;8.70;;;13.50;99.90;;;;;;5046368;28;20188;-57
2024/02/27 09:11:13;;;;;;;16.77;8.37;;;13.70;99.90;;;;;;5018519;28;20210;-59
2024/02/27 09:13:39;;;;;;;14.03;7.70;;;13.80;99.90;;;;;;5032059;28;20219;-57
2024/02/27 09:16:05;;;;;;;13.07;7.90;;;13.80;99.90;;;;;;5043858;28;20198;-55
2024/02/27 09:18:31;;;;;;;13.97;8.00;;;13.60;99.90;;;;;;5040862;28;20219;-57
2024/02/27 09:20:57;;;;;;;19.40;8.67;;;13.40;99.90;;;;;;5030599;28;20211;-58
2024/02/27 09:23:23;;;;;;;14.07;8.03;;;13.50;99.90;;;;;;5030230;28;20294;-55
2024/02/27 09:25:49;;;;;;;16.17;7.70;;;13.70;99.90;;;;;;5046603;28;20723;-57
2024/02/27 09:28:15;;;;;;;12.60;7.67;;;13.80;99.90;;;;;;5029786;28;20184;-56
2024/02/27 09:30:41;;;;;;;14.93;8.27;;;14.00;99.90;;;;;;5039864;28;20573;-58
2024/02/27 09:33:07;;;;;;;14.53;7.90;;;14.10;99.90;;;;;;5036222;28;20219;-59
2024/02/27 09:35:32;;;;;;;13.30;7.83;;;14.00;99.90;;;;;;5030063;28;20208;-56
2024/02/27 09:37:58;;;;;;;14.57;7.60;;;13.90;99.90;;;;;;5029351;28;20685;-54
2024/02/27 09:40:24;;;;;;;13.67;7.53;;;14.30;99.90;;;;;;5038131;28;20686;-58
2024/02/27 09:42:55;;;;;;;14.97;7.60;;;14.50;99.90;;;;;;5029697;28;20215;-57
2024/02/27 09:45:23;;;;;;;17.07;7.70;;;14.50;99.90;;;;;;5029842;28;20277;-58
2024/02/27 09:47:51;;;;;;;13.30;7.83;;;14.50;99.90;;;;;;5037292;28;20191;-57
2024/02/27 09:50:18;;;;;;;17.30;9.00;;;14.40;99.90;;;;;;5030036;28;20244;-57
2024/02/27 09:52:49;;;;;;;12.40;7.60;;;14.50;99.90;;;;;;5037499;28;20249;-56
2024/02/27 09:55:23;;;;;;;14.07;8.00;;;14.70;99.90;;;;;;5037012;28;20188;-59
2024/02/27 09:57:50;;;;;;;14.37;7.70;;;14.80;99.90;;;;;;5030787;28;20187;-58
2024/02/27 10:00:19;;;;;;;13.63;8.30;;;14.90;99.90;;;;;;5035110;28;20188;-55
2024/02/27 10:02:50;;;;;;;16.93;8.47;;;14.90;99.90;;;;;;5039682;28;20217;-57
2024/02/27 10:05:18;;;;;;;15.43;8.10;;;14.60;99.90;;;;;;5034401;28;20212;-57
2024/02/27 10:07:48;;;;;;;15.70;8.10;;;14.40;99.90;;;;;;5036779;28;20268;-58
2024/02/27 10:10:15;;;;;;;20.27;8.30;;;14.60;99.90;;;;;;5029471;28;20219;-56
2024/02/27 10:12:41;;;;;;;13.53;7.70;;;14.90;99.90;;;;;;5030859;28;20663;-59
2024/02/27 10:15:07;;;;;;;14.80;7.30;;;14.90;99.90;;;;;;5040662;28;20214;-58
2024/02/27 10:17:35;;;;;;;15.53;7.67;;;15.00;99.90;;;;;;5048253;28;20191;-56
2024/02/27 10:20:04;;;;;;;20.70;8.60;;;15.20;99.90;;;;;;5028759;28;20670;-56
2024/02/27 10:22:31;;;;;;;15.87;8.37;;;15.20;99.90;;;;;;5028636;28;20211;-58
2024/02/27 10:25:09;;;;;;;15.77;8.40;;;15.40;99.90;;;;;;5033079;28;20183;-58
2024/02/27 10:27:37;;;;;;;14.47;7.77;;;15.60;99.90;;;;;;5039308;28;20191;-57
2024/02/27 10:30:05;;;;;;;13.53;8.07;;;15.90;99.90;;;;;;5040905;28;20219;-55
2024/02/27 10:32:34;;;;;;;12.50;7.53;;;15.90;99.90;;;;;;5040600;28;20207;-58
2024/02/27 10:35:05;;;;;;;14.13;7.43;;;15.60;99.90;;;;;;5040582;28;20262;-58
2024/02/27 10:37:35;;;;;;;18.53;8.33;;;15.10;99.90;;;;;;5031638;28;20255;-58
2024/02/27 10:40:02;;;;;;;13.30;7.47;;;15.10;99.90;;;;;;5028804;28;20191;-54
2024/02/27 10:42:30;;;;;;;15.73;9.03;;;15.20;99.90;;;;;;5036819;28;20246;-58
2024/02/27 10:44:56;;;;;;;15.90;8.83;;;15.00;99.90;;;;;;5040770;28;20285;-57
2024/02/27 10:47:25;;;;;;;15.23;8.60;;;15.00;99.90;;;;;;5039814;28;20226;-58
2024/02/27 10:49:55;;;;;;;16.53;8.97;;;14.90;99.90;;;;;;5037341;28;20523;-57
2024/02/27 10:52:26;;;;;;;17.30;9.37;;;15.00;99.90;;;;;;5028651;28;20227;-58
2024/02/27 10:54:53;;;;;;;15.93;8.90;;;15.00;99.90;;;;;;5028465;28;20168;-58
2024/02/27 10:57:18;;;;;;;17.60;8.63;;;15.10;99.90;;;;;;5035000;28;20250;-57
2024/02/27 10:59:45;;;;;;;12.70;7.67;;;15.30;99.90;;;;;;5030640;28;20317;-57
2024/02/27 11:02:18;;;;;;;18.57;8.70;;;15.30;99.90;;;;;;5034400;28;20272;-58
2024/02/27 11:04:46;;;;;;;17.00;7.97;;;15.20;99.90;;;;;;5038179;28;20655;-58
2024/02/27 11:07:14;;;;;;;15.13;7.90;;;15.30;99.90;;;;;;5036073;28;20699;-57
2024/02/27 11:09:43;;;;;;;17.67;8.30;;;15.40;99.90;;;;;;5047982;28;20270;-58
2024/02/27 11:12:13;;;;;;;18.87;7.73;;;15.60;99.90;;;;;;5041076;28;20204;-58
2024/02/27 11:14:43;;;;;;;14.93;7.73;;;15.70;99.90;;;;;;5033775;28;20188;-58
2024/02/27 11:17:13;;;;;;;12.67;7.30;;;15.70;99.90;;;;;;5044012;28;20191;-56
2024/02/27 11:19:45;;;;;;;14.40;7.67;;;15.80;99.90;;;;;;5043093;28;20202;-56
2024/02/27 11:22:11;;;;;;;11.80;6.73;;;15.90;99.90;;;;;;5038003;28;20636;-56
2024/02/27 11:24:38;;;;;;;19.13;7.40;;;15.90;99.90;;;;;;5044228;28;20241;-57
2024/02/27 11:27:04;;;;;;;14.70;6.50;;;15.40;99.90;;;;;;5047146;28;20647;-58
2024/02/27 11:29:31;;;;;;;11.70;6.77;;;15.20;99.90;;;;;;5040300;28;20197;-56
2024/02/27 11:31:57;;;;;;;12.90;7.03;;;14.90;99.90;;;;;;5032231;28;20220;-58
2024/02/27 11:34:26;;;;;;;13.60;7.47;;;14.60;99.90;;;;;;5032143;28;20561;-58
2024/02/27 11:37:07;;;;;;;14.37;7.60;;;14.60;99.90;;;;;;5043200;28;20183;-54
2024/02/27 11:39:32;;;;;;;13.93;6.00;;;14.70;99.90;;;;;;5035891;28;20194;-58
2024/02/27 11:41:58;;;;;;;12.33;6.50;;;14.80;99.90;;;;;;5040245;28;20290;-56
2024/02/27 11:44:23;;;;;;;10.83;6.20;;;15.00;99.90;;;;;;5040038;28;20211;-56
2024/02/27 11:46:53;;;;;;;12.07;5.70;;;14.90;99.90;;;;;;5042605;28;20294;-57
2024/02/27 11:49:39;;;;;;;14.37;5.97;;;14.90;99.90;;;;;;5037094;28;20270;-56
2024/02/27 11:52:05;;;;;;;10.03;5.80;;;14.80;99.90;;;;;;5031820;28;20333;-56
2024/02/27 11:54:35;;;;;;;11.73;5.60;;;15.00;99.90;;;;;;5031620;28;20183;-58
2024/02/27 11:57:03;;;;;;;12.40;6.27;;;15.20;99.90;;;;;;5038515;28;20223;-57
2024/02/27 11:59:32;;;;;;;11.63;5.87;;;15.60;99.90;;;;;;5032461;28;20268;-58
2024/02/27 12:02:00;;;;;;;13.70;5.40;;;15.80;99.90;;;;;;5039701;28;20211;-57
2024/02/27 12:04:27;;;;;;;13.70;5.60;;;16.00;99.90;;;;;;5031525;28;20188;-58
2024/02/27 12:06:52;;;;;;;11.87;5.73;;;16.10;99.90;;;;;;5047591;28;20184;-56
2024/02/27 12:09:25;;;;;;;12.67;5.50;;;16.30;99.90;;;;;;5031821;28;20757;-57
2024/02/27 12:11:52;;;;;;;8.97;5.37;;;16.30;99.90;;;;;;5031018;28;20742;-56
2024/02/27 12:14:18;;;;;;;15.97;5.80;;;16.60;99.90;;;;;;5037597;28;20183;-54
2024/02/27 12:16:44;;;;;;;12.07;5.23;;;16.60;99.90;;;;;;5040762;28;20253;-54
2024/02/27 12:19:10;;;;;;;9.80;5.53;;;16.20;99.90;;;;;;5036162;28;20508;-61
2024/02/27 12:21:35;;;;;;;8.23;4.83;;;16.50;99.90;;;;;;5033613;28;20223;-56
2024/02/27 12:24:27;;;;;;;10.33;5.37;;;16.80;99.90;;;;;;5038966;28;20275;-53
2024/02/27 12:26:57;;;;;;;13.43;5.27;;;17.40;99.90;;;;;;5036344;28;20267;-57
2024/02/27 12:29:25;;;;;;;13.77;5.47;;;17.20;99.90;;;;;;5048179;28;20179;-59
2024/02/27 12:31:50;;;;;;;7.50;4.50;;;17.00;99.90;;;;;;5039538;28;20231;-57
2024/02/27 12:34:16;;;;;;;9.20;4.93;;;17.00;99.90;;;;;;5037359;28;20798;-60
2024/02/27 12:36:42;;;;;;;12.53;5.17;;;16.60;99.90;;;;;;5034844;28;20547;-58